Time;durP1;ratioP1;P1;durP2;ratioP2;P2;SDS_P1;SDS_P2;PMS_P1;PMS_P2;Temp;Humidity;BMP_temperature;BMP_pressure;BME280_temperature;BME280_humidity;BME280_pressure;Samples;Min_cycle;Max_cycle;Signal;HPM_P1;HPM_P2
2021/03/11 00:00:17;;;;;;;28.03;14.20;;;;;;;;;;5096984;28;20456;-71
2021/03/11 00:02:47;;;;;;;25.57;15.40;;;;;;;;;;5097089;28;20468;-70
2021/03/11 00:05:15;;;;;;;28.43;16.50;;;;;;;;;;5097066;28;20465;-70
2021/03/11 00:07:44;;;;;;;29.83;14.90;;;;;;;;;;5100205;28;20795;-71
2021/03/11 00:10:15;;;;;;;30.63;15.57;;;;;;;;;;5100726;28;20448;-71
2021/03/11 00:12:48;;;;;;;20.10;11.30;;;;;;;;;;5099629;28;20464;-71
2021/03/11 00:15:20;;;;;;;25.40;14.03;;;;;;;;;;5099824;28;20481;-71
2021/03/11 00:20:51;;;;;;;31.43;16.20;;;;;;;;;;5099560;28;20444;-71
2021/03/11 00:23:22;;;;;;;27.90;15.90;;;;;;;;;;5100314;28;20542;-71
2021/03/11 00:25:54;;;;;;;30.37;16.30;;;;;;;;;;5100777;28;20501;-71
2021/03/11 00:28:24;;;;;;;28.37;14.20;;;;;;;;;;5100727;28;20758;-71
2021/03/11 00:30:52;;;;;;;29.40;16.77;;;;;;;;;;5100123;28;20446;-71
2021/03/11 00:33:20;;;;;;;31.97;16.07;;;;;;;;;;5100417;28;20470;-71
2021/03/11 00:35:49;;;;;;;25.63;16.63;;;;;;;;;;5099758;28;20488;-71
2021/03/11 00:38:18;;;;;;;25.00;14.23;;;;;;;;;;5099748;28;20460;-71
2021/03/11 00:40:57;;;;;;;22.23;11.43;;;;;;;;;;5099494;28;20781;-71
2021/03/11 00:43:25;;;;;;;28.07;15.07;;;;;;;;;;5089811;28;20541;-71
2021/03/11 00:45:57;;;;;;;33.00;18.70;;;;;;;;;;5078973;28;20928;-71
2021/03/11 00:48:25;;;;;;;31.80;17.33;;;;;;;;;;5079271;28;20935;-71
2021/03/11 00:50:53;;;;;;;32.33;17.13;;;;;;;;;;5086169;28;20545;-71
2021/03/11 00:53:29;;;;;;;28.47;17.40;;;;;;;;;;5100851;28;20467;-71
2021/03/11 00:56:01;;;;;;;31.37;17.17;;;;;;;;;;5099306;28;20563;-72
2021/03/11 00:58:33;;;;;;;34.20;14.00;;;;;;;;;;5099469;28;20907;-71
2021/03/11 01:01:06;;;;;;;30.67;14.50;;;;;;;;;;5100540;28;20452;-71
2021/03/11 01:03:35;;;;;;;27.67;16.27;;;;;;;;;;5099189;28;20456;-71
2021/03/11 01:06:05;;;;;;;32.77;17.33;;;;;;;;;;5098764;28;20514;-71
2021/03/11 01:08:33;;;;;;;25.70;13.33;;;;;;;;;;5098566;28;20552;-71
2021/03/11 01:11:01;;;;;;;28.97;15.40;;;;;;;;;;5097785;28;20484;-70
2021/03/11 01:13:29;;;;;;;27.13;16.70;;;;;;;;;;5099434;28;20457;-70
2021/03/11 01:16:03;;;;;;;27.00;14.90;;;;;;;;;;5099060;28;20517;-70
2021/03/11 01:18:32;;;;;;;31.27;16.50;;;;;;;;;;5099158;28;20459;-70
2021/03/11 01:21:00;;;;;;;31.43;18.70;;;;;;;;;;5098842;28;20481;-71
2021/03/11 01:23:27;;;;;;;27.90;16.70;;;;;;;;;;5079307;28;20469;-71
2021/03/11 01:25:54;;;;;;;29.37;18.30;;;;;;;;;;5097839;28;20797;-71
2021/03/11 01:28:25;;;;;;;27.47;15.60;;;;;;;;;;5098595;28;20458;-71
2021/03/11 01:30:52;;;;;;;30.23;17.10;;;;;;;;;;5097682;28;20856;-71
2021/03/11 01:33:19;;;;;;;26.33;11.50;;;;;;;;;;5097460;28;20471;-72
2021/03/11 01:35:48;;;;;;;30.00;15.70;;;;;;;;;;5098898;28;20487;-71
2021/03/11 01:38:15;;;;;;;23.60;16.40;;;;;;;;;;5098965;28;20489;-71
2021/03/11 01:40:43;;;;;;;27.03;15.30;;;;;;;;;;5098873;28;20452;-71
2021/03/11 01:43:10;;;;;;;30.07;17.43;;;;;;;;;;5099095;28;20467;-71
2021/03/11 01:45:37;;;;;;;33.97;13.90;;;;;;;;;;5097962;28;20456;-71
2021/03/11 01:48:08;;;;;;;32.47;15.93;;;;;;;;;;5098417;28;20885;-71
2021/03/11 01:50:36;;;;;;;26.77;15.20;;;;;;;;;;5098562;28;20852;-71
2021/03/11 01:53:04;;;;;;;24.40;12.50;;;;;;;;;;5098722;28;20460;-71
2021/03/11 01:55:32;;;;;;;28.37;16.30;;;;;;;;;;5098300;28;20512;-71
2021/03/11 01:57:59;;;;;;;23.30;12.10;;;;;;;;;;5098204;28;20480;-71
2021/03/11 02:00:27;;;;;;;20.70;11.50;;;;;;;;;;5099459;28;20460;-71
2021/03/11 02:02:54;;;;;;;20.40;12.90;;;;;;;;;;5097957;28;20800;-71
2021/03/11 02:05:23;;;;;;;18.87;12.10;;;;;;;;;;5097768;28;20521;-71
2021/03/11 02:07:51;;;;;;;26.87;14.47;;;;;;;;;;5097239;28;20902;-72
2021/03/11 02:10:22;;;;;;;19.77;13.30;;;;;;;;;;5097006;28;20537;-71
2021/03/11 02:12:53;;;;;;;26.60;13.77;;;;;;;;;;5097793;28;20484;-71
2021/03/11 02:15:27;;;;;;;20.87;13.30;;;;;;;;;;5097718;28;20925;-71
2021/03/11 02:18:00;;;;;;;24.70;12.30;;;;;;;;;;5097468;28;20500;-71
2021/03/11 02:20:46;;;;;;;24.60;13.47;;;;;;;;;;5097993;28;20464;-71
2021/03/11 02:23:30;;;;;;;19.83;13.70;;;;;;;;;;5097410;28;20448;-72
2021/03/11 02:26:06;;;;;;;19.77;10.83;;;;;;;;;;5097645;28;20472;-71
2021/03/11 02:28:35;;;;;;;22.03;12.30;;;;;;;;;;5096722;28;20456;-71
2021/03/11 02:31:04;;;;;;;24.27;12.97;;;;;;;;;;5098016;28;20761;-71
2021/03/11 02:33:32;;;;;;;20.97;11.67;;;;;;;;;;5097496;28;20540;-71
2021/03/11 02:36:06;;;;;;;20.10;14.00;;;;;;;;;;5096719;28;20488;-71
2021/03/11 02:38:38;;;;;;;21.27;13.27;;;;;;;;;;5095950;28;20457;-71
2021/03/11 02:41:11;;;;;;;21.83;13.33;;;;;;;;;;5098083;28;20453;-71
2021/03/11 02:43:39;;;;;;;21.53;11.53;;;;;;;;;;5097360;28;20853;-71
2021/03/11 02:46:07;;;;;;;18.13;11.37;;;;;;;;;;5096557;28;20452;-71
2021/03/11 02:48:36;;;;;;;20.70;13.50;;;;;;;;;;5096629;28;20747;-72
2021/03/11 02:51:03;;;;;;;22.90;13.30;;;;;;;;;;5097758;28;20456;-72
2021/03/11 02:53:30;;;;;;;16.57;7.50;;;;;;;;;;5097557;28;20526;-71
2021/03/11 02:55:58;;;;;;;25.30;12.23;;;;;;;;;;5096858;28;20488;-72
2021/03/11 02:58:26;;;;;;;17.50;12.00;;;;;;;;;;5097229;28;20566;-71
2021/03/11 03:00:54;;;;;;;23.33;12.43;;;;;;;;;;5097400;28;20466;-72
2021/03/11 03:03:22;;;;;;;26.90;14.03;;;;;;;;;;5096978;28;20734;-72
2021/03/11 03:05:54;;;;;;;26.30;14.43;;;;;;;;;;5096604;28;20474;-72
2021/03/11 03:08:21;;;;;;;23.73;13.80;;;;;;;;;;5096808;28;20864;-72
2021/03/11 03:10:49;;;;;;;21.10;13.50;;;;;;;;;;5096678;28;20487;-72
2021/03/11 03:13:18;;;;;;;15.70;10.40;;;;;;;;;;5096762;28;20459;-72
2021/03/11 03:15:45;;;;;;;23.30;12.10;;;;;;;;;;5096919;28;20485;-72
2021/03/11 03:18:14;;;;;;;23.53;14.30;;;;;;;;;;5075553;28;20752;-72
2021/03/11 03:20:43;;;;;;;26.93;14.70;;;;;;;;;;5076994;28;20465;-72
2021/03/11 03:23:10;;;;;;;20.00;12.07;;;;;;;;;;5097707;28;20459;-72
2021/03/11 03:25:38;;;;;;;30.00;16.13;;;;;;;;;;5096855;28;20448;-72
2021/03/11 03:28:05;;;;;;;22.30;12.47;;;;;;;;;;5097047;28;20460;-72
2021/03/11 03:30:33;;;;;;;23.70;14.20;;;;;;;;;;5097702;28;20731;-72
2021/03/11 03:33:00;;;;;;;22.73;15.57;;;;;;;;;;5097797;28;20460;-72
2021/03/11 03:35:28;;;;;;;21.90;13.40;;;;;;;;;;5097325;28;20491;-72
2021/03/11 03:37:56;;;;;;;28.57;15.77;;;;;;;;;;5097517;28;20438;-72
2021/03/11 03:40:24;;;;;;;25.80;14.70;;;;;;;;;;5099440;28;20518;-72
2021/03/11 03:42:54;;;;;;;22.33;12.47;;;;;;;;;;5101234;28;20452;-72
2021/03/11 03:45:22;;;;;;;26.60;15.03;;;;;;;;;;5102799;28;20471;-72
2021/03/11 03:47:51;;;;;;;22.83;13.60;;;;;;;;;;5101088;28;20448;-72
2021/03/11 03:50:20;;;;;;;23.70;13.20;;;;;;;;;;5101368;28;20489;-73
2021/03/11 03:52:48;;;;;;;25.23;14.60;;;;;;;;;;5100470;28;20465;-72
2021/03/11 03:55:17;;;;;;;21.20;13.90;;;;;;;;;;5101471;28;20479;-72
2021/03/11 03:57:47;;;;;;;26.30;15.37;;;;;;;;;;5100060;28;20594;-72
2021/03/11 04:00:16;;;;;;;23.30;13.53;;;;;;;;;;5099515;28;20464;-73
2021/03/11 04:02:43;;;;;;;27.03;15.63;;;;;;;;;;5081131;28;20492;-72
2021/03/11 04:05:11;;;;;;;22.90;14.30;;;;;;;;;;5099826;28;20463;-72
2021/03/11 04:07:42;;;;;;;22.23;11.90;;;;;;;;;;5099775;28;20449;-72
2021/03/11 04:10:11;;;;;;;24.93;15.23;;;;;;;;;;5099757;28;20452;-72
2021/03/11 04:12:42;;;;;;;26.47;16.63;;;;;;;;;;5099833;28;20586;-74
2021/03/11 04:15:10;;;;;;;30.30;17.10;;;;;;;;;;5099614;28;20839;-73
2021/03/11 04:17:40;;;;;;;24.60;15.60;;;;;;;;;;5098733;28;20446;-73
2021/03/11 04:20:08;;;;;;;33.03;17.03;;;;;;;;;;5100500;28;20448;-73
2021/03/11 04:22:35;;;;;;;24.57;14.37;;;;;;;;;;5100379;28;20546;-72
2021/03/11 04:25:03;;;;;;;27.63;15.00;;;;;;;;;;5100311;28;20448;-73
2021/03/11 04:27:31;;;;;;;26.90;15.97;;;;;;;;;;5099836;28;20472;-73
2021/03/11 04:29:59;;;;;;;29.93;16.20;;;;;;;;;;5099501;28;20530;-73
2021/03/11 04:32:27;;;;;;;24.83;15.00;;;;;;;;;;5099041;28;20434;-73
2021/03/11 04:34:54;;;;;;;21.33;12.27;;;;;;;;;;5099565;28;20966;-73
2021/03/11 04:37:25;;;;;;;24.93;15.33;;;;;;;;;;5098345;28;20480;-74
2021/03/11 04:39:52;;;;;;;29.33;14.77;;;;;;;;;;5098638;28;20517;-73
2021/03/11 04:42:19;;;;;;;26.30;15.23;;;;;;;;;;5100522;28;20741;-74
2021/03/11 04:44:47;;;;;;;30.33;17.77;;;;;;;;;;5099458;28;20452;-74
2021/03/11 04:47:16;;;;;;;26.97;13.87;;;;;;;;;;5099142;28;20448;-73
2021/03/11 04:49:44;;;;;;;27.70;15.23;;;;;;;;;;5078704;28;20458;-73
2021/03/11 04:52:11;;;;;;;28.10;16.13;;;;;;;;;;5094014;28;20453;-73
2021/03/11 04:54:39;;;;;;;29.40;15.37;;;;;;;;;;5090112;28;20472;-73
2021/03/11 04:57:07;;;;;;;23.93;16.20;;;;;;;;;;5099131;28;20484;-73
2021/03/11 04:59:34;;;;;;;25.20;15.27;;;;;;;;;;5099391;28;20459;-73
2021/03/11 05:02:07;;;;;;;30.17;18.70;;;;;;;;;;5098338;28;20450;-75
2021/03/11 05:04:37;;;;;;;27.10;16.43;;;;;;;;;;5098311;28;20545;-73
2021/03/11 05:07:04;;;;;;;22.47;13.17;;;;;;;;;;5098878;28;20973;-73
2021/03/11 05:09:32;;;;;;;26.67;16.67;;;;;;;;;;5098416;28;20526;-73
2021/03/11 05:11:59;;;;;;;23.10;14.20;;;;;;;;;;5098927;28;20448;-73
2021/03/11 05:14:26;;;;;;;31.07;17.30;;;;;;;;;;5098306;28;20491;-74
2021/03/11 05:16:55;;;;;;;30.57;16.60;;;;;;;;;;5099186;28;20480;-73
2021/03/11 05:19:25;;;;;;;22.83;13.30;;;;;;;;;;5097526;28;20563;-73
2021/03/11 05:21:53;;;;;;;18.87;13.50;;;;;;;;;;5097588;28;20513;-74
2021/03/11 05:24:21;;;;;;;27.07;15.80;;;;;;;;;;5098317;28;20449;-73
2021/03/11 05:26:48;;;;;;;23.37;14.27;;;;;;;;;;5099080;28;20444;-73
2021/03/11 05:29:15;;;;;;;23.13;13.70;;;;;;;;;;5097921;28;20526;-74
2021/03/11 05:31:42;;;;;;;26.07;14.37;;;;;;;;;;5098337;28;20483;-74
2021/03/11 05:34:12;;;;;;;20.30;11.87;;;;;;;;;;5098142;28;20453;-73
2021/03/11 05:36:39;;;;;;;27.33;17.03;;;;;;;;;;5098535;28;20527;-73
2021/03/11 05:39:10;;;;;;;24.57;15.00;;;;;;;;;;5097231;28;20456;-73
2021/03/11 05:41:42;;;;;;;28.30;15.70;;;;;;;;;;5097716;28;20448;-74
2021/03/11 05:44:12;;;;;;;30.03;16.73;;;;;;;;;;5098298;28;20535;-74
2021/03/11 05:46:40;;;;;;;28.77;13.87;;;;;;;;;;5098200;28;20452;-73
2021/03/11 05:49:09;;;;;;;30.73;16.50;;;;;;;;;;5097059;28;20468;-74
2021/03/11 05:51:37;;;;;;;27.23;16.17;;;;;;;;;;5098377;28;20448;-74
2021/03/11 05:54:05;;;;;;;22.23;13.40;;;;;;;;;;5098003;28;20490;-74
2021/03/11 05:56:34;;;;;;;26.93;18.00;;;;;;;;;;5098413;28;20894;-74
2021/03/11 05:59:02;;;;;;;24.23;13.60;;;;;;;;;;5098089;28;20867;-74
2021/03/11 06:01:32;;;;;;;21.67;12.97;;;;;;;;;;5097032;28;20465;-74
2021/03/11 06:04:01;;;;;;;21.53;13.90;;;;;;;;;;5096368;28;20467;-74
2021/03/11 06:06:41;;;;;;;35.40;17.67;;;;;;;;;;5097946;28;20463;-74
2021/03/11 06:09:09;;;;;;;26.20;17.00;;;;;;;;;;5077941;28;20593;-74
2021/03/11 06:11:48;;;;;;;24.83;14.97;;;;;;;;;;5097029;28;20767;-74
2021/03/11 06:14:17;;;;;;;25.60;16.50;;;;;;;;;;5087984;28;20452;-74
2021/03/11 06:17:13;;;;;;;18.60;11.13;;;;;;;;;;5083987;28;20477;-74
2021/03/11 06:19:41;;;;;;;26.60;14.97;;;;;;;;;;5084688;28;20865;-74
2021/03/11 06:22:10;;;;;;;26.20;14.90;;;;;;;;;;5098048;28;20460;-74
2021/03/11 06:24:38;;;;;;;25.13;14.53;;;;;;;;;;5096417;28;20479;-74
2021/03/11 06:27:07;;;;;;;24.83;14.53;;;;;;;;;;5098001;28;20546;-73
2021/03/11 06:29:50;;;;;;;30.33;15.80;;;;;;;;;;5095065;28;20453;-75
2021/03/11 06:32:18;;;;;;;25.30;15.53;;;;;;;;;;5089266;28;20452;-74
2021/03/11 06:34:50;;;;;;;24.90;15.13;;;;;;;;;;5097908;28;20472;-73
2021/03/11 06:37:40;;;;;;;22.67;14.10;;;;;;;;;;5097553;28;20483;-73
2021/03/11 06:40:17;;;;;;;23.70;13.47;;;;;;;;;;5096376;28;20450;-74
2021/03/11 06:42:51;;;;;;;25.50;15.93;;;;;;;;;;5098257;28;20860;-74
2021/03/11 06:45:26;;;;;;;28.70;14.33;;;;;;;;;;5091627;28;20480;-74
2021/03/11 06:47:56;;;;;;;27.27;14.43;;;;;;;;;;5098582;28;20443;-73
2021/03/11 06:50:46;;;;;;;20.03;12.70;;;;;;;;;;5096410;28;20740;-73
2021/03/11 06:53:24;;;;;;;21.77;13.30;;;;;;;;;;5089529;28;20449;-73
2021/03/11 06:55:53;;;;;;;23.30;14.57;;;;;;;;;;5088392;28;20473;-73
2021/03/11 06:58:28;;;;;;;21.17;13.90;;;;;;;;;;5096168;28;20458;-73
2021/03/11 07:01:12;;;;;;;19.77;11.77;;;;;;;;;;5096827;28;20507;-72
2021/03/11 07:03:47;;;;;;;19.03;11.33;;;;;;;;;;5094525;28;20712;-72
2021/03/11 07:06:31;;;;;;;19.13;12.60;;;;;;;;;;5096002;28;20437;-73
2021/03/11 07:08:59;;;;;;;28.53;12.40;;;;;;;;;;5096191;28;20463;-73
2021/03/11 07:11:27;;;;;;;25.23;11.90;;;;;;;;;;5096390;28;20541;-73
2021/03/11 07:14:15;;;;;;;20.40;12.10;;;;;;;;;;5095866;28;20891;-73
2021/03/11 07:16:45;;;;;;;17.30;10.67;;;;;;;;;;5095319;28;20588;-73
2021/03/11 07:19:14;;;;;;;17.43;10.47;;;;;;;;;;5095060;28;20464;-73
2021/03/11 07:21:48;;;;;;;21.77;12.60;;;;;;;;;;5094379;28;20744;-73
2021/03/11 07:24:33;;;;;;;16.50;9.63;;;;;;;;;;5090886;28;20477;-73
2021/03/11 07:27:08;;;;;;;20.00;11.30;;;;;;;;;;5087958;28;20447;-74
2021/03/11 07:29:37;;;;;;;17.37;11.57;;;;;;;;;;5095153;28;20474;-74
2021/03/11 07:32:11;;;;;;;14.70;9.03;;;;;;;;;;5093924;28;20445;-73
2021/03/11 07:34:46;;;;;;;21.10;10.33;;;;;;;;;;5085592;28;20798;-73
2021/03/11 07:37:22;;;;;;;15.40;9.70;;;;;;;;;;5096939;28;20552;-74
2021/03/11 07:40:33;;;;;;;14.17;10.03;;;;;;;;;;5094861;28;20516;-74
2021/03/11 07:43:03;;;;;;;11.90;9.00;;;;;;;;;;5086310;28;20435;-73
2021/03/11 07:45:39;;;;;;;17.37;10.07;;;;;;;;;;5091483;28;20467;-73
2021/03/11 07:48:12;;;;;;;13.60;8.40;;;;;;;;;;5096121;28;20474;-73
2021/03/11 07:50:49;;;;;;;16.30;10.70;;;;;;;;;;5089830;28;20544;-73
2021/03/11 07:53:30;;;;;;;15.80;9.60;;;;;;;;;;5091087;28;20460;-73
2021/03/11 07:56:01;;;;;;;15.20;9.23;;;;;;;;;;5093779;28;20485;-74
2021/03/11 07:58:30;;;;;;;15.80;9.67;;;;;;;;;;5096174;28;20439;-73
2021/03/11 08:00:57;;;;;;;13.70;9.70;;;;;;;;;;5095482;28;20518;-73
2021/03/11 08:03:39;;;;;;;18.00;10.17;;;;;;;;;;5080340;28;20454;-74
2021/03/11 08:06:49;;;;;;;16.23;9.10;;;;;;;;;;5095946;28;20458;-74
2021/03/11 08:09:42;;;;;;;16.53;9.87;;;;;;;;;;5095334;28;20876;-75
2021/03/11 08:12:32;;;;;;;16.10;8.57;;;;;;;;;;5095077;28;20445;-74
2021/03/11 08:15:04;;;;;;;9.30;6.50;;;;;;;;;;5076568;28;20452;-73
2021/03/11 08:17:47;;;;;;;13.83;7.57;;;;;;;;;;5075419;28;20486;-73
2021/03/11 08:20:33;;;;;;;11.73;8.43;;;;;;;;;;5075201;28;20870;-73
2021/03/11 08:23:06;;;;;;;13.03;8.17;;;;;;;;;;5075279;28;20454;-73
2021/03/11 08:25:45;;;;;;;12.33;7.90;;;;;;;;;;5076044;28;20908;-73
2021/03/11 08:28:40;;;;;;;12.37;9.17;;;;;;;;;;5100614;28;20449;-73
2021/03/11 08:31:12;;;;;;;16.53;10.23;;;;;;;;;;5091877;28;20472;-73
2021/03/11 08:34:02;;;;;;;13.77;8.90;;;;;;;;;;5099231;28;20528;-72
2021/03/11 08:36:36;;;;;;;15.97;8.73;;;;;;;;;;5094389;28;20513;-73
2021/03/11 08:39:35;;;;;;;11.30;8.23;;;;;;;;;;5096788;28;20448;-74
2021/03/11 08:42:22;;;;;;;11.87;8.00;;;;;;;;;;5087914;28;20488;-73
2021/03/11 08:44:55;;;;;;;8.97;6.40;;;;;;;;;;5097591;28;20451;-73
2021/03/11 08:47:23;;;;;;;11.10;6.67;;;;;;;;;;5101732;28;20907;-73
2021/03/11 08:49:50;;;;;;;13.20;8.53;;;;;;;;;;5082517;28;20458;-73
2021/03/11 08:52:36;;;;;;;12.57;8.17;;;;;;;;;;5084103;28;20448;-73
2021/03/11 08:55:20;;;;;;;11.53;7.87;;;;;;;;;;5097578;28;21083;-73
2021/03/11 08:57:47;;;;;;;12.50;8.20;;;;;;;;;;5096745;28;20504;-72
2021/03/11 09:00:39;;;;;;;10.10;7.40;;;;;;;;;;5098392;28;20465;-72
2021/03/11 09:03:21;;;;;;;9.60;7.03;;;;;;;;;;5098544;28;20475;-72
2021/03/11 09:05:55;;;;;;;9.97;6.10;;;;;;;;;;5097710;28;20446;-72
2021/03/11 09:11:20;;;;;;;15.13;8.03;;;;;;;;;;5097539;28;20454;-72
2021/03/11 09:13:49;;;;;;;11.90;7.47;;;;;;;;;;5097526;28;20468;-72
2021/03/11 09:16:19;;;;;;;12.30;7.40;;;;;;;;;;5099543;28;20482;-72
2021/03/11 09:18:47;;;;;;;8.87;6.27;;;;;;;;;;5101991;28;20518;-72
2021/03/11 09:21:14;;;;;;;8.43;6.17;;;;;;;;;;5109073;28;20475;-72
2021/03/11 09:23:42;;;;;;;9.90;5.57;;;;;;;;;;5103095;28;20473;-72
2021/03/11 09:26:24;;;;;;;6.20;5.00;;;;;;;;;;5103724;28;21021;-71
2021/03/11 09:28:51;;;;;;;9.20;6.13;;;;;;;;;;5097703;28;20453;-73
2021/03/11 09:31:27;;;;;;;7.57;5.63;;;;;;;;;;5096959;28;20454;-71
2021/03/11 09:33:59;;;;;;;9.70;4.63;;;;;;;;;;5096849;28;20526;-72
2021/03/11 09:36:27;;;;;;;8.70;6.40;;;;;;;;;;5094102;28;20822;-71
2021/03/11 09:39:04;;;;;;;7.40;6.00;;;;;;;;;;5097058;28;20463;-73
2021/03/11 09:41:36;;;;;;;8.90;5.73;;;;;;;;;;5098411;28;20568;-72
2021/03/11 09:44:04;;;;;;;7.40;5.00;;;;;;;;;;5097801;28;20566;-73
2021/03/11 09:46:34;;;;;;;7.37;5.17;;;;;;;;;;5098661;28;20468;-73
2021/03/11 09:49:01;;;;;;;8.70;5.07;;;;;;;;;;5098976;28;20554;-72
2021/03/11 09:51:30;;;;;;;11.67;5.10;;;;;;;;;;5096939;28;20461;-72
2021/03/11 09:54:06;;;;;;;7.00;4.87;;;;;;;;;;5102630;28;20482;-70
2021/03/11 09:56:52;;;;;;;13.53;4.17;;;;;;;;;;5107434;28;20580;-72
2021/03/11 09:59:25;;;;;;;7.70;5.10;;;;;;;;;;5103313;28;20535;-70
2021/03/11 10:01:59;;;;;;;6.20;4.50;;;;;;;;;;5107931;28;20855;-71
2021/03/11 10:04:28;;;;;;;7.73;4.30;;;;;;;;;;5097967;28;20974;-71
2021/03/11 10:06:55;;;;;;;9.17;4.50;;;;;;;;;;5096904;28;20440;-71
2021/03/11 10:09:25;;;;;;;8.73;5.27;;;;;;;;;;5094945;28;20736;-71
2021/03/11 10:11:53;;;;;;;6.47;5.37;;;;;;;;;;5097565;28;20444;-71
2021/03/11 10:14:23;;;;;;;7.80;5.10;;;;;;;;;;5097646;28;20917;-71
2021/03/11 10:17:11;;;;;;;6.20;4.40;;;;;;;;;;5097349;28;20484;-71
2021/03/11 10:19:47;;;;;;;6.10;3.97;;;;;;;;;;5097744;28;20461;-73
2021/03/11 10:22:27;;;;;;;4.70;3.30;;;;;;;;;;5095705;28;20458;-72
2021/03/11 10:24:55;;;;;;;4.67;3.33;;;;;;;;;;5096417;28;20463;-71
2021/03/11 10:27:23;;;;;;;6.10;3.27;;;;;;;;;;5096862;28;20879;-72
2021/03/11 10:30:02;;;;;;;6.60;3.23;;;;;;;;;;5096427;28;20487;-73
2021/03/11 10:32:48;;;;;;;4.63;3.43;;;;;;;;;;5098898;28;20948;-71
2021/03/11 10:35:35;;;;;;;3.00;2.70;;;;;;;;;;5095943;28;20451;-72
2021/03/11 10:38:21;;;;;;;4.70;2.70;;;;;;;;;;5096662;28;20531;-71
2021/03/11 10:40:57;;;;;;;4.13;2.50;;;;;;;;;;5097645;28;20522;-71
2021/03/11 10:43:28;;;;;;;7.10;2.97;;;;;;;;;;5096918;28;20880;-71
2021/03/11 10:45:56;;;;;;;3.13;2.17;;;;;;;;;;5097398;28;20740;-71
2021/03/11 10:48:25;;;;;;;5.23;3.00;;;;;;;;;;5097896;28;20452;-72
2021/03/11 10:50:54;;;;;;;5.60;3.13;;;;;;;;;;5099072;28;20531;-71
2021/03/11 10:53:37;;;;;;;5.73;4.50;;;;;;;;;;5095235;28;20490;-71
2021/03/11 10:56:07;;;;;;;3.90;2.23;;;;;;;;;;5096697;28;20484;-71
2021/03/11 10:58:37;;;;;;;4.03;2.83;;;;;;;;;;5096361;28;20532;-71
2021/03/11 11:01:08;;;;;;;3.87;2.37;;;;;;;;;;5097198;28;20463;-72
2021/03/11 11:03:46;;;;;;;5.03;3.13;;;;;;;;;;5097331;28;20461;-71
2021/03/11 11:06:14;;;;;;;3.23;2.00;;;;;;;;;;5097015;28;20513;-73
2021/03/11 11:08:45;;;;;;;3.60;2.60;;;;;;;;;;5097920;28;20557;-72
2021/03/11 11:11:13;;;;;;;4.13;2.83;;;;;;;;;;5095368;28;20489;-71
2021/03/11 11:13:43;;;;;;;5.47;2.90;;;;;;;;;;5097086;28;20673;-72
2021/03/11 11:16:12;;;;;;;5.07;2.47;;;;;;;;;;5097840;28;20484;-73
2021/03/11 11:18:43;;;;;;;3.90;1.93;;;;;;;;;;5098151;28;20513;-73
2021/03/11 11:21:13;;;;;;;4.50;2.80;;;;;;;;;;5092746;28;20821;-72
2021/03/11 11:23:40;;;;;;;3.83;2.67;;;;;;;;;;5096401;28;20461;-72
2021/03/11 11:26:16;;;;;;;4.57;2.93;;;;;;;;;;5096008;28;20450;-71
2021/03/11 11:28:44;;;;;;;11.47;10.40;;;;;;;;;;5097968;28;20456;-71
2021/03/11 11:31:11;;;;;;;18.10;16.30;;;;;;;;;;5097933;28;20451;-72
2021/03/11 11:33:39;;;;;;;4.63;2.60;;;;;;;;;;5095423;28;20456;-72
2021/03/11 11:36:06;;;;;;;4.60;2.47;;;;;;;;;;5097669;28;20488;-72
2021/03/11 11:38:35;;;;;;;7.60;2.57;;;;;;;;;;5096748;28;20474;-71
2021/03/11 11:41:02;;;;;;;4.30;1.73;;;;;;;;;;5094853;28;21047;-71
2021/03/11 11:43:33;;;;;;;4.57;2.93;;;;;;;;;;5096821;28;20468;-73
2021/03/11 11:46:06;;;;;;;5.03;1.80;;;;;;;;;;5094703;28;20451;-72
2021/03/11 11:48:39;;;;;;;5.63;2.10;;;;;;;;;;5082757;28;20486;-73
2021/03/11 11:51:09;;;;;;;4.60;2.57;;;;;;;;;;5090974;28;20536;-73
2021/03/11 11:53:38;;;;;;;6.80;2.53;;;;;;;;;;5095539;28;20771;-72
2021/03/11 11:56:07;;;;;;;5.37;2.50;;;;;;;;;;5095521;28;20459;-70
2021/03/11 11:58:37;;;;;;;5.97;2.60;;;;;;;;;;5096100;28;20462;-72
2021/03/11 12:01:12;;;;;;;5.97;2.20;;;;;;;;;;5097118;28;20447;-72
2021/03/11 12:03:39;;;;;;;6.03;1.93;;;;;;;;;;5101790;28;20701;-72
2021/03/11 12:06:10;;;;;;;4.60;2.40;;;;;;;;;;5098724;28;20462;-72
2021/03/11 12:08:45;;;;;;;6.73;2.50;;;;;;;;;;5102727;28;20466;-73
2021/03/11 12:11:19;;;;;;;6.20;2.20;;;;;;;;;;5105126;28;20451;-73
2021/03/11 12:13:46;;;;;;;6.07;2.50;;;;;;;;;;5099150;28;20463;-72
2021/03/11 12:16:13;;;;;;;9.90;2.20;;;;;;;;;;5100126;28;20453;-71
2021/03/11 12:18:41;;;;;;;5.57;1.80;;;;;;;;;;5100166;28;20501;-72
2021/03/11 12:21:08;;;;;;;6.57;2.63;;;;;;;;;;5099351;28;20462;-73
2021/03/11 12:23:35;;;;;;;9.43;3.17;;;;;;;;;;5100138;28;20521;-72
2021/03/11 12:26:19;;;;;;;10.63;3.23;;;;;;;;;;5099293;28;20456;-73
2021/03/11 12:28:48;;;;;;;3.83;2.10;;;;;;;;;;5099260;28;20502;-74
2021/03/11 12:31:15;;;;;;;4.57;2.47;;;;;;;;;;5100549;28;20460;-74
2021/03/11 12:33:43;;;;;;;5.40;2.67;;;;;;;;;;5099422;28;20515;-73
2021/03/11 12:36:19;;;;;;;5.83;2.83;;;;;;;;;;5099750;28;20466;-72
2021/03/11 12:38:51;;;;;;;5.10;2.70;;;;;;;;;;5099528;28;20462;-73
2021/03/11 12:41:48;;;;;;;4.17;3.17;;;;;;;;;;5098011;28;20469;-72
2021/03/11 12:44:25;;;;;;;7.43;5.27;;;;;;;;;;5096542;28;20450;-72
2021/03/11 12:47:07;;;;;;;6.63;3.70;;;;;;;;;;5107928;28;20448;-72
2021/03/11 12:49:35;;;;;;;7.50;4.70;;;;;;;;;;5100683;28;20543;-71
2021/03/11 12:52:18;;;;;;;6.73;3.33;;;;;;;;;;5100260;28;20512;-72
2021/03/11 12:54:47;;;;;;;7.97;4.67;;;;;;;;;;5098785;28;20440;-71
2021/03/11 12:57:17;;;;;;;4.13;2.87;;;;;;;;;;5099576;28;20565;-73
2021/03/11 12:59:54;;;;;;;11.37;3.80;;;;;;;;;;5099642;28;20456;-72
2021/03/11 13:02:30;;;;;;;3.40;1.80;;;;;;;;;;5097089;28;20478;-72
2021/03/11 13:05:04;;;;;;;6.87;2.50;;;;;;;;;;5100224;28;20441;-71
2021/03/11 13:07:46;;;;;;;4.97;1.90;;;;;;;;;;5097711;28;20453;-71
2021/03/11 13:10:14;;;;;;;7.33;2.90;;;;;;;;;;5101457;28;20465;-72
2021/03/11 13:12:44;;;;;;;3.90;2.10;;;;;;;;;;5100103;28;20429;-73
2021/03/11 13:15:18;;;;;;;2.87;1.60;;;;;;;;;;5098469;28;20449;-72
2021/03/11 13:17:46;;;;;;;6.13;2.67;;;;;;;;;;5099979;28;20490;-72
2021/03/11 13:20:15;;;;;;;4.40;2.40;;;;;;;;;;5098133;28;20451;-73
2021/03/11 13:22:49;;;;;;;6.37;2.70;;;;;;;;;;5098882;28;20444;-74
2021/03/11 13:25:18;;;;;;;5.20;2.50;;;;;;;;;;5098895;28;20541;-73
2021/03/11 13:27:48;;;;;;;7.47;3.87;;;;;;;;;;5098287;28;20745;-73
2021/03/11 13:30:18;;;;;;;12.33;3.00;;;;;;;;;;5098095;28;20459;-72
2021/03/11 13:32:50;;;;;;;3.73;1.93;;;;;;;;;;5097963;28;20463;-73
2021/03/11 13:35:18;;;;;;;7.83;2.10;;;;;;;;;;5098033;28;20546;-74
2021/03/11 13:37:47;;;;;;;4.83;2.20;;;;;;;;;;5100002;28;20536;-73
2021/03/11 13:40:41;;;;;;;4.93;1.80;;;;;;;;;;5099335;28;20447;-73
2021/03/11 13:43:14;;;;;;;5.40;1.93;;;;;;;;;;5097504;28;20443;-74
2021/03/11 13:45:46;;;;;;;7.53;1.63;;;;;;;;;;5098888;28;20454;-73
2021/03/11 13:51:10;;;;;;;5.87;2.17;;;;;;;;;;5094297;28;20534;-73
2021/03/11 13:53:41;;;;;;;7.37;1.93;;;;;;;;;;5099232;28;20531;-72
2021/03/11 13:56:13;;;;;;;9.50;3.00;;;;;;;;;;5097272;28;20463;-72
2021/03/11 13:58:47;;;;;;;7.57;3.30;;;;;;;;;;5097335;28;20494;-72
2021/03/11 14:01:32;;;;;;;;;;;;;;;;;;;;;
2021/03/11 14:04:02;;;;;;;9.57;2.50;;;;;;;;;;5096527;28;20457;-74
2021/03/11 14:06:31;;;;;;;7.63;1.70;;;;;;;;;;5098020;28;20947;-74
2021/03/11 14:08:59;;;;;;;6.20;2.00;;;;;;;;;;5097502;28;20470;-73
2021/03/11 14:11:27;;;;;;;14.27;3.30;;;;;;;;;;5096430;28;20451;-75
2021/03/11 14:13:56;;;;;;;4.53;2.50;;;;;;;;;;5097448;28;20534;-73
2021/03/11 14:16:44;;;;;;;4.90;1.23;;;;;;;;;;5095742;28;20847;-73
2021/03/11 14:19:13;;;;;;;10.77;1.97;;;;;;;;;;5077151;28;20880;-73
2021/03/11 14:22:01;;;;;;;6.10;1.40;;;;;;;;;;5092596;28;20542;-73
2021/03/11 14:24:34;;;;;;;8.43;1.60;;;;;;;;;;5094766;28;20444;-72
2021/03/11 14:27:09;;;;;;;4.10;1.40;;;;;;;;;;5097622;28;21138;-73
2021/03/11 14:29:42;;;;;;;12.80;1.93;;;;;;;;;;5097369;28;20445;-73
2021/03/11 14:32:16;;;;;;;6.10;1.27;;;;;;;;;;5094332;28;20919;-73
2021/03/11 14:34:45;;;;;;;6.53;1.17;;;;;;;;;;5096825;28;20627;-73
2021/03/11 14:37:19;;;;;;;3.20;1.13;;;;;;;;;;5097261;28;20810;-74
2021/03/11 14:40:01;;;;;;;3.63;0.80;;;;;;;;;;5095946;28;20701;-73
2021/03/11 14:42:32;;;;;;;2.13;0.70;;;;;;;;;;5094549;28;20548;-74
2021/03/11 14:45:00;;;;;;;3.50;0.80;;;;;;;;;;5096502;28;20814;-74
2021/03/11 14:47:30;;;;;;;1.20;0.50;;;;;;;;;;5096665;28;20696;-73
2021/03/11 14:49:57;;;;;;;2.50;0.93;;;;;;;;;;5097371;28;20775;-74
2021/03/11 14:52:29;;;;;;;1.83;0.90;;;;;;;;;;5097049;28;20457;-73
2021/03/11 14:54:56;;;;;;;1.63;1.03;;;;;;;;;;5096843;28;20456;-74
2021/03/11 14:57:25;;;;;;;2.63;0.90;;;;;;;;;;5097266;28;20489;-72
2021/03/11 14:59:53;;;;;;;3.37;0.83;;;;;;;;;;5096900;28;20466;-73
2021/03/11 15:02:21;;;;;;;5.17;1.23;;;;;;;;;;5098137;28;20489;-73
2021/03/11 15:04:49;;;;;;;5.73;0.90;;;;;;;;;;5098008;28;20878;-73